Time;durP1;ratioP1;P1;durP2;ratioP2;P2;SDS_P1;SDS_P2;PMS_P1;PMS_P2;Temp;Humidity;BMP_temperature;BMP_pressure;BME280_temperature;BME280_humidity;BME280_pressure;Samples;Min_cycle;Max_cycle;Signal;HPM_P1;HPM_P2
2022/05/01 00:01:35;;;;;;;16.40;8.88;;;;;;;13.97;66.09;101201.56;4954725;28;20030;-82
2022/05/01 00:04:01;;;;;;;22.17;8.48;;;;;;;13.90;66.83;101203.09;4953389;29;20039;-82
2022/05/01 00:06:30;;;;;;;12.55;8.05;;;;;;;13.91;66.71;101210.22;4954878;28;20106;-76
2022/05/01 00:08:56;;;;;;;14.68;8.98;;;;;;;13.88;66.46;101197.78;4955315;28;20449;-81
2022/05/01 00:11:21;;;;;;;16.13;7.88;;;;;;;14.00;66.22;101201.31;4973251;28;20046;-79
2022/05/01 00:13:46;;;;;;;12.73;6.30;;;;;;;13.99;66.36;101200.44;4956717;29;20042;-80
2022/05/01 00:16:14;;;;;;;15.00;7.85;;;;;;;13.96;66.25;101189.91;4954938;29;20091;-82
2022/05/01 00:18:41;;;;;;;13.95;6.32;;;;;;;13.99;66.06;101196.88;4969385;28;20039;-81
2022/05/01 00:21:07;;;;;;;12.88;6.75;;;;;;;13.93;65.31;101195.56;4953855;29;20500;-81
2022/05/01 00:23:32;;;;;;;8.70;6.00;;;;;;;13.97;64.93;101194.31;4954343;28;20039;-81
2022/05/01 00:25:59;;;;;;;9.52;6.18;;;;;;;13.94;64.37;101191.84;4952740;29;20039;-80
2022/05/01 00:28:26;;;;;;;15.10;6.13;;;;;;;13.93;64.32;101195.56;4969024;28;20045;-81
2022/05/01 00:30:51;;;;;;;8.73;5.55;;;;;;;13.87;63.99;101188.00;4952879;29;20063;-80
2022/05/01 00:38:45;;;;;;;9.80;5.65;;;;;;;13.91;63.67;101194.81;4966870;28;20042;-80
2022/05/01 00:41:11;;;;;;;14.13;5.90;;;;;;;13.84;63.84;101182.84;4952559;28;20042;-80
2022/05/01 00:44:05;;;;;;;7.38;5.03;;;;;;;13.79;63.86;101186.94;4972480;28;20032;-80
2022/05/01 00:46:35;;;;;;;13.40;6.57;;;;;;;13.82;63.87;101176.69;4956254;29;20122;-80
2022/05/01 00:49:04;;;;;;;10.90;5.57;;;;;;;13.81;63.86;101176.84;4956994;28;20066;-80
2022/05/01 00:51:33;;;;;;;12.15;6.30;;;;;;;13.86;63.54;101178.16;4957428;28;20035;-80
2022/05/01 00:53:59;;;;;;;9.45;6.03;;;;;;;13.90;63.47;101179.59;4957671;28;20031;-82
2022/05/01 00:56:26;;;;;;;10.57;5.88;;;;;;;13.85;63.42;101179.13;4957619;28;20095;-80
2022/05/01 00:58:52;;;;;;;7.85;5.25;;;;;;;13.83;63.44;101183.81;4956414;29;20046;-80
2022/05/01 01:01:19;;;;;;;10.50;5.05;;;;;;;13.86;63.39;101177.28;4957170;28;20425;-80
2022/05/01 01:03:45;;;;;;;9.23;5.32;;;;;;;13.88;63.52;101186.16;4957142;28;20035;-80
2022/05/01 01:06:11;;;;;;;8.93;5.88;;;;;;;13.93;63.05;101176.63;4957269;29;20102;-80
2022/05/01 01:08:39;;;;;;;9.85;5.30;;;;;;;13.98;62.87;101187.91;4956351;29;20058;-81
2022/05/01 01:11:04;;;;;;;14.38;6.22;;;;;;;13.98;62.73;101182.50;4955907;28;20034;-81
2022/05/01 01:13:30;;;;;;;8.48;5.53;;;;;;;13.99;62.73;101178.81;4957159;28;20453;-80
2022/05/01 01:15:56;;;;;;;9.18;5.50;;;;;;;13.99;62.76;101184.22;4971784;28;20028;-80
2022/05/01 01:18:24;;;;;;;8.25;4.97;;;;;;;14.01;62.36;101181.38;4955379;29;20039;-81
2022/05/01 01:20:54;;;;;;;7.00;5.40;;;;;;;13.94;62.45;101181.03;4972106;28;20031;-81
2022/05/01 01:23:20;;;;;;;9.80;5.85;;;;;;;13.87;63.02;101184.41;4972238;28;20532;-81
2022/05/01 01:25:47;;;;;;;12.10;5.28;;;;;;;13.84;63.09;101185.53;4956988;28;20078;-81
2022/05/01 01:28:14;;;;;;;10.63;5.43;;;;;;;13.83;63.02;101189.22;4955625;29;20031;-81
2022/05/01 01:33:28;;;;;;;8.35;5.35;;;;;;;13.79;62.97;101187.75;4957211;29;20073;-81
2022/05/01 01:35:58;;;;;;;5.88;5.25;;;;;;;13.75;63.03;101190.88;4957363;29;20032;-81
2022/05/01 01:38:24;;;;;;;10.27;5.40;;;;;;;13.75;62.91;101193.59;4956747;28;20078;-81
2022/05/01 01:40:54;;;;;;;10.23;5.40;;;;;;;13.77;62.89;101187.06;4956805;28;20448;-81
2022/05/01 01:43:23;;;;;;;8.98;5.13;;;;;;;13.88;62.73;101202.38;4955581;29;20023;-81
2022/05/01 01:45:49;;;;;;;9.43;5.65;;;;;;;13.91;62.58;101208.34;4956808;28;20024;-80
2022/05/01 01:48:22;;;;;;;8.60;5.95;;;;;;;13.92;62.31;101196.53;4962357;28;20480;-80
2022/05/01 01:50:56;;;;;;;;;;;;;;;13.80;62.93;101199.44;4953693;29;20035;-80
2022/05/01 01:53:21;;;;;;;8.70;5.93;;;;;;;13.85;63.22;101192.66;4970401;28;19924;-80
2022/05/01 01:55:47;;;;;;;10.98;6.15;;;;;;;13.77;63.07;101202.41;4955693;28;20023;-83
2022/05/01 01:58:12;;;;;;;12.63;5.90;;;;;;;13.84;63.03;101196.34;4955156;28;20118;-82
2022/05/01 02:00:38;;;;;;;8.05;6.00;;;;;;;13.80;63.39;101200.31;4971339;28;20489;-82
2022/05/01 02:03:05;;;;;;;9.38;6.40;;;;;;;13.67;63.98;101196.94;4955936;29;20034;-81
2022/05/01 02:05:33;;;;;;;9.57;5.82;;;;;;;13.70;63.95;101191.25;4954689;29;20034;-80
2022/05/01 02:07:58;;;;;;;14.98;6.20;;;;;;;13.66;64.29;101195.22;4971223;28;20037;-80
2022/05/01 02:10:24;;;;;;;12.13;6.13;;;;;;;13.61;64.22;101198.31;4955223;28;20125;-81
2022/05/01 02:12:54;;;;;;;13.90;5.80;;;;;;;13.64;64.74;101195.34;4956218;28;20027;-81
2022/05/01 02:15:22;;;;;;;9.43;6.97;;;;;;;13.64;64.60;101195.34;4971332;28;20027;-82
2022/05/01 02:17:49;;;;;;;10.15;6.28;;;;;;;13.64;64.68;101194.47;4956103;28;20027;-80
2022/05/01 02:20:15;;;;;;;22.58;6.60;;;;;;;13.63;64.95;101195.50;4955896;29;20034;-80
2022/05/01 02:22:42;;;;;;;17.40;8.07;;;;;;;13.63;65.00;101201.75;4954750;29;20035;-82
2022/05/01 02:25:12;;;;;;;16.95;7.47;;;;;;;13.63;64.92;101209.00;4954197;29;20561;-81
2022/05/01 02:27:38;;;;;;;13.38;8.25;;;;;;;13.56;65.21;101215.91;4955507;28;20031;-81
2022/05/01 02:30:05;;;;;;;17.50;8.27;;;;;;;13.58;65.89;101216.63;4954293;29;20035;-81
2022/05/01 02:32:31;;;;;;;14.80;7.70;;;;;;;13.52;65.52;101215.31;4954292;29;20197;-81
2022/05/01 02:34:56;;;;;;;10.48;7.50;;;;;;;13.51;66.02;101215.47;4954297;29;20023;-81
2022/05/01 02:37:22;;;;;;;13.07;7.47;;;;;;;13.41;66.07;101199.16;4955660;28;20027;-81
2022/05/01 02:39:47;;;;;;;12.57;7.40;;;;;;;13.40;65.89;101199.25;4955417;29;20026;-81
2022/05/01 02:42:13;;;;;;;12.98;7.63;;;;;;;13.40;66.10;101196.56;4955098;28;20409;-81
2022/05/01 02:44:39;;;;;;;9.82;7.70;;;;;;;13.40;66.61;101201.97;4954909;28;20485;-80
2022/05/01 02:47:05;;;;;;;18.38;7.32;;;;;;;13.40;66.21;101197.44;4970734;28;20035;-81
2022/05/01 02:49:31;;;;;;;16.60;7.45;;;;;;;13.40;66.73;101204.66;4954216;29;20039;-80
2022/05/01 02:51:56;;;;;;;11.45;7.60;;;;;;;13.36;66.63;101205.94;4970203;28;20055;-81
2022/05/01 02:54:22;;;;;;;17.45;7.45;;;;;;;13.41;66.64;101209.09;4955008;29;20029;-80
2022/05/01 02:56:49;;;;;;;11.85;7.55;;;;;;;13.44;66.40;101211.53;4954903;29;20033;-80
2022/05/01 02:59:16;;;;;;;11.15;6.68;;;;;;;13.48;66.35;101215.72;4959477;29;20042;-81
2022/05/01 03:01:43;;;;;;;10.93;7.30;;;;;;;13.48;66.19;101215.72;4975300;28;20122;-80
2022/05/01 03:04:09;;;;;;;12.68;7.55;;;;;;;13.46;66.29;101202.31;4956428;28;20027;-81
2022/05/01 03:06:35;;;;;;;14.10;7.07;;;;;;;13.55;65.72;101208.78;4955034;28;20038;-81
2022/05/01 03:09:01;;;;;;;15.38;7.88;;;;;;;13.52;65.67;101209.03;4970117;28;20131;-80
2022/05/01 03:11:27;;;;;;;17.90;8.40;;;;;;;13.52;65.78;101211.75;4955207;28;20035;-80
2022/05/01 03:13:54;;;;;;;18.55;7.07;;;;;;;13.46;66.24;101212.25;4953708;29;20027;-80
2022/05/01 03:16:21;;;;;;;15.23;7.45;;;;;;;13.46;66.03;101213.13;4969885;28;20038;-81
2022/05/01 03:24:18;;;;;;;9.95;7.43;;;;;;;13.57;65.96;101221.22;4954880;29;20057;-80
2022/05/01 03:26:44;;;;;;;14.70;7.30;;;;;;;13.61;65.86;101227.19;4984275;28;20023;-80
2022/05/01 03:29:17;;;;;;;11.40;6.93;;;;;;;13.63;65.65;101230.63;4966142;28;20393;-82
2022/05/01 03:31:42;;;;;;;12.70;7.45;;;;;;;13.64;65.67;101226.91;4954750;29;20065;-82
2022/05/01 03:34:08;;;;;;;11.10;7.25;;;;;;;13.67;65.56;101215.84;4954200;29;20055;-80
2022/05/01 03:36:33;;;;;;;10.88;7.40;;;;;;;13.74;65.21;101225.16;4952790;29;20473;-81
2022/05/01 03:38:59;;;;;;;12.95;7.60;;;;;;;13.77;65.07;101227.59;4954549;28;20035;-80
2022/05/01 03:41:26;;;;;;;17.30;7.47;;;;;;;13.82;64.77;101233.47;4961270;28;20023;-80
2022/05/01 03:43:52;;;;;;;11.80;6.38;;;;;;;13.91;64.70;101231.84;4960252;29;20045;-81
2022/05/01 03:46:20;;;;;;;9.60;7.07;;;;;;;13.85;64.73;101230.50;4957120;28;20038;-80
2022/05/01 03:48:46;;;;;;;22.38;7.90;;;;;;;13.88;64.79;101232.13;4969420;28;20046;-82
2022/05/01 03:51:12;;;;;;;12.88;7.15;;;;;;;13.81;64.91;101230.91;4954400;29;20051;-80
2022/05/01 03:53:40;;;;;;;13.85;6.75;;;;;;;13.81;64.75;101233.63;4954301;28;20038;-80
2022/05/01 03:56:06;;;;;;;8.90;6.22;;;;;;;13.84;64.52;101245.03;4970049;28;20082;-80
2022/05/01 03:58:31;;;;;;;13.80;7.50;;;;;;;13.75;64.90;101245.81;4970504;28;20039;-80
2022/05/01 04:00:58;;;;;;;26.75;7.20;;;;;;;13.74;65.04;101243.22;4952912;29;20086;-81
2022/05/01 04:03:24;;;;;;;13.68;6.85;;;;;;;13.78;65.09;101259.06;4954673;28;20031;-81
2022/05/01 04:05:51;;;;;;;15.93;7.43;;;;;;;13.73;65.01;101252.34;4954004;28;20031;-81
2022/05/01 04:08:18;;;;;;;12.60;7.45;;;;;;;13.82;64.50;101257.81;4969360;28;20043;-81
2022/05/01 04:10:46;;;;;;;15.10;7.07;;;;;;;13.87;64.55;101260.13;4936609;29;20489;-81
2022/05/01 04:13:12;;;;;;;11.70;7.22;;;;;;;13.96;64.42;101248.53;4954172;28;20059;-81
2022/05/01 04:15:38;;;;;;;11.63;6.57;;;;;;;14.04;64.08;101263.09;4953868;28;20046;-81
2022/05/01 04:18:04;;;;;;;13.60;7.68;;;;;;;14.15;64.02;101257.66;4957335;28;20483;-81
2022/05/01 04:20:30;;;;;;;13.60;6.53;;;;;;;14.18;63.84;101256.53;4956883;28;20046;-81
2022/05/01 04:22:57;;;;;;;13.77;7.30;;;;;;;14.27;63.72;101263.84;4958246;28;20031;-81
2022/05/01 04:25:29;;;;;;;10.55;7.05;;;;;;;14.24;63.52;101252.41;4956583;29;20104;-81
2022/05/01 04:28:01;;;;;;;17.08;8.60;;;;;;;14.37;63.40;101253.09;4958107;28;20703;-81
2022/05/01 04:30:29;;;;;;;11.40;7.63;;;;;;;14.39;63.44;101251.13;4956758;28;20035;-81
2022/05/01 04:32:56;;;;;;;19.95;8.15;;;;;;;14.36;63.41;101254.09;4957664;28;20046;-81
2022/05/01 04:35:32;;;;;;;11.90;7.50;;;;;;;14.39;63.50;101254.69;4957703;28;20038;-81
2022/05/01 04:38:02;;;;;;;13.73;8.02;;;;;;;14.36;63.68;101254.09;4975124;28;20039;-81
2022/05/01 04:40:30;;;;;;;12.88;7.95;;;;;;;14.34;63.69;101253.38;4957984;28;20028;-81
2022/05/01 04:43:09;;;;;;;22.98;7.63;;;;;;;14.42;63.63;101256.25;4958115;29;20454;-82
2022/05/01 04:45:37;;;;;;;16.60;7.43;;;;;;;14.37;63.99;101253.09;4958116;28;20027;-81
2022/05/01 04:48:03;;;;;;;11.98;7.82;;;;;;;14.32;64.48;101244.47;4956360;29;20086;-81
2022/05/01 04:50:30;;;;;;;11.18;7.70;;;;;;;14.34;64.79;101246.09;4957550;28;20130;-82
2022/05/01 04:52:57;;;;;;;13.88;7.53;;;;;;;14.37;64.86;101242.28;4958163;29;20051;-81
2022/05/01 04:55:23;;;;;;;11.38;7.25;;;;;;;14.26;65.53;101231.50;4957544;28;20379;-82
2022/05/01 04:57:49;;;;;;;10.40;6.75;;;;;;;14.41;65.69;101238.28;4972930;28;20043;-81
2022/05/01 05:00:19;;;;;;;14.70;7.53;;;;;;;14.45;65.79;101234.34;4957646;28;20551;-82
2022/05/01 05:02:47;;;;;;;14.95;7.35;;;;;;;14.55;65.75;101235.25;4960895;29;20031;-80
2022/05/01 05:05:14;;;;;;;23.30;15.13;;;;;;;14.53;65.63;101218.28;4971972;28;20377;-81
2022/05/01 05:07:40;;;;;;;14.95;9.07;;;;;;;14.62;65.49;101226.44;4957431;28;20382;-81
2022/05/01 05:10:09;;;;;;;11.38;5.97;;;;;;;14.67;65.63;101235.03;4957881;29;20047;-81
2022/05/01 05:12:42;;;;;;;12.80;5.82;;;;;;;14.77;65.42;101228.78;4955883;29;20488;-81
2022/05/01 05:15:11;;;;;;;9.98;6.60;;;;;;;14.77;64.99;101216.09;4957347;28;20402;-81
2022/05/01 05:17:38;;;;;;;10.30;5.35;;;;;;;14.93;64.06;101224.56;4956771;28;20401;-82
2022/05/01 05:20:07;;;;;;;9.82;5.18;;;;;;;15.08;63.62;101223.16;4955827;29;20031;-81
2022/05/01 05:22:33;;;;;;;13.48;9.00;;;;;;;15.14;63.17;101222.59;4955591;29;20042;-81
2022/05/01 05:25:00;;;;;;;24.13;7.95;;;;;;;15.18;62.80;101226.75;4971635;28;20051;-81
2022/05/01 05:27:26;;;;;;;19.40;5.15;;;;;;;15.17;62.40;101222.31;4971652;28;20037;-81
2022/05/01 05:29:55;;;;;;;9.93;4.60;;;;;;;15.21;62.66;101212.94;4956362;28;20035;-81
2022/05/01 05:32:23;;;;;;;10.60;5.07;;;;;;;15.29;62.67;101214.09;4956376;28;20035;-80
2022/05/01 05:34:49;;;;;;;9.57;4.72;;;;;;;15.41;62.02;101212.97;4956774;28;20082;-82
2022/05/01 05:37:16;;;;;;;13.45;5.90;;;;;;;15.49;61.69;101210.41;4955797;29;20818;-83
2022/05/01 05:39:42;;;;;;;9.80;4.50;;;;;;;15.55;61.22;101207.13;4956999;28;20466;-82
2022/05/01 05:42:08;;;;;;;7.40;4.43;;;;;;;15.66;60.84;101207.84;4957039;28;20035;-82
2022/05/01 05:44:33;;;;;;;14.45;4.93;;;;;;;15.71;60.98;101210.13;4954912;29;20058;-80
2022/05/01 05:46:59;;;;;;;9.32;5.70;;;;;;;15.76;60.54;101213.28;4956328;28;20027;-82
2022/05/01 05:49:25;;;;;;;8.23;4.53;;;;;;;15.79;60.17;101205.72;4956460;28;20050;-83
2022/05/01 05:51:51;;;;;;;9.48;5.28;;;;;;;15.81;60.16;101205.53;4956248;28;20035;-82
2022/05/01 05:54:16;;;;;;;11.13;4.38;;;;;;;15.89;60.37;101210.25;4956391;29;20070;-80
2022/05/01 05:56:44;;;;;;;11.57;5.40;;;;;;;16.06;60.26;101204.09;4956365;29;20474;-81
2022/05/01 05:59:12;;;;;;;6.47;4.18;;;;;;;16.13;60.18;101205.22;4956541;28;20111;-81
2022/05/01 06:01:38;;;;;;;10.57;4.88;;;;;;;16.17;59.11;101202.09;4955268;29;20175;-81
2022/05/01 06:04:04;;;;;;;9.85;4.20;;;;;;;16.29;58.37;101200.91;4956365;29;20186;-82
2022/05/01 06:06:30;;;;;;;25.27;5.22;;;;;;;16.41;57.91;101208.84;4971177;28;20078;-81
2022/05/01 06:08:55;;;;;;;7.07;3.97;;;;;;;16.46;57.99;101211.97;4955179;28;20514;-85
2022/05/01 06:11:21;;;;;;;14.65;4.78;;;;;;;16.54;58.03;101214.81;4956645;29;20031;-82
2022/05/01 06:13:48;;;;;;;6.22;3.97;;;;;;;16.66;57.26;101219.09;4971385;28;20054;-83
2022/05/01 06:16:13;;;;;;;7.80;4.75;;;;;;;16.71;57.18;101223.06;4956337;28;20019;-83
2022/05/01 06:18:39;;;;;;;11.90;4.75;;;;;;;16.73;57.18;101225.63;4955023;29;20031;-82
2022/05/01 06:21:06;;;;;;;5.63;4.35;;;;;;;16.72;57.03;101223.91;4955243;28;20498;-81
2022/05/01 06:23:31;;;;;;;9.32;4.45;;;;;;;16.70;56.58;101225.91;4955022;29;20078;-81
2022/05/01 06:25:57;;;;;;;23.73;5.20;;;;;;;16.68;57.19;101227.94;4960367;29;20039;-79
2022/05/01 06:28:22;;;;;;;8.70;4.05;;;;;;;16.74;56.75;101222.75;4978574;28;20035;-81
2022/05/01 06:30:50;;;;;;;8.55;4.45;;;;;;;16.88;56.80;101218.66;4954482;29;20038;-82
2022/05/01 06:33:17;;;;;;;11.27;4.32;;;;;;;16.94;56.55;101226.22;4955832;28;20037;-82
2022/05/01 06:35:44;;;;;;;14.82;5.05;;;;;;;17.06;56.22;101237.75;4954864;29;20449;-82
2022/05/01 06:38:10;;;;;;;5.70;4.38;;;;;;;17.10;55.66;101229.13;4971101;28;20027;-80
2022/05/01 06:40:39;;;;;;;9.77;3.97;;;;;;;17.17;55.78;101229.38;4962978;28;20023;-83
2022/05/01 06:43:07;;;;;;;14.95;8.10;;;;;;;17.20;56.15;101232.66;4978324;28;20035;-81
2022/05/01 06:45:34;;;;;;;10.80;4.35;;;;;;;17.33;55.25;101225.00;4954929;28;20043;-83
2022/05/01 06:48:01;;;;;;;8.65;4.40;;;;;;;17.35;54.46;101225.69;4954776;28;20027;-83
2022/05/01 06:50:28;;;;;;;11.50;4.18;;;;;;;17.39;54.17;101235.25;4968937;28;20055;-81
2022/05/01 06:52:54;;;;;;;7.22;4.05;;;;;;;17.49;53.98;101234.34;4954528;29;20405;-80
2022/05/01 06:55:23;;;;;;;12.50;5.10;;;;;;;17.51;54.41;101224.16;4954369;29;20506;-80
2022/05/01 06:57:49;;;;;;;17.67;5.15;;;;;;;17.63;54.55;101236.53;4954585;28;20482;-77
2022/05/01 07:00:18;;;;;;;9.63;5.15;;;;;;;17.68;53.97;101228.75;4953048;29;20037;-79
2022/05/01 07:02:45;;;;;;;10.82;3.97;;;;;;;17.79;53.76;101226.69;4953954;28;20462;-80
2022/05/01 07:05:11;;;;;;;8.57;4.80;;;;;;;17.88;53.37;101235.75;4954465;28;20055;-79
2022/05/01 07:07:38;;;;;;;6.15;3.50;;;;;;;17.92;52.62;101237.13;4954352;28;20066;-79
2022/05/01 07:10:05;;;;;;;6.30;3.78;;;;;;;17.95;52.68;101244.97;4969167;28;20489;-78
2022/05/01 07:12:30;;;;;;;15.13;4.35;;;;;;;17.97;52.51;101239.41;4968512;28;20128;-78
2022/05/01 07:14:57;;;;;;;16.13;5.88;;;;;;;18.12;52.83;101255.00;4968968;28;20031;-78
2022/05/01 07:17:22;;;;;;;12.43;3.67;;;;;;;18.13;52.76;101251.28;4968729;28;20027;-78
2022/05/01 07:19:49;;;;;;;10.18;3.97;;;;;;;18.19;52.56;101261.53;4968396;28;20039;-79
2022/05/01 07:22:19;;;;;;;13.27;4.35;;;;;;;18.22;52.17;101253.06;4953926;28;20557;-79
2022/05/01 07:24:44;;;;;;;8.43;4.00;;;;;;;18.33;52.18;101260.97;4954006;28;20031;-79
2022/05/01 07:27:11;;;;;;;5.20;3.75;;;;;;;18.41;50.95;101250.09;4954255;28;20453;-78
2022/05/01 07:29:37;;;;;;;9.00;3.75;;;;;;;18.45;51.38;101243.34;4952543;29;20035;-80
2022/05/01 07:32:03;;;;;;;5.95;4.15;;;;;;;18.60;51.34;101249.06;4968584;28;20389;-79
2022/05/01 07:34:29;;;;;;;8.43;4.50;;;;;;;18.70;50.99;101251.69;4953578;28;20035;-79
2022/05/01 07:36:55;;;;;;;7.90;4.95;;;;;;;18.75;51.29;101246.59;4953856;28;20115;-79
2022/05/01 07:39:20;;;;;;;8.77;3.88;;;;;;;18.89;51.07;101254.16;4953669;29;20031;-78
2022/05/01 07:41:48;;;;;;;5.45;3.40;;;;;;;18.92;50.19;101251.97;4953637;28;20027;-79
2022/05/01 07:44:15;;;;;;;4.88;3.50;;;;;;;18.92;49.47;101245.66;4953643;28;20023;-79
2022/05/01 07:46:43;;;;;;;6.65;3.47;;;;;;;18.96;49.52;101255.19;4968580;28;20524;-79
2022/05/01 07:49:09;;;;;;;8.98;3.70;;;;;;;18.94;49.60;101246.34;4952294;28;20109;-79
2022/05/01 07:51:35;;;;;;;6.13;3.30;;;;;;;18.96;49.73;101255.19;4952700;28;20047;-80
2022/05/01 07:54:02;;;;;;;20.42;4.38;;;;;;;18.83;50.07;101249.38;4957260;29;20106;-77
2022/05/01 07:56:28;;;;;;;9.77;4.63;;;;;;;18.88;49.54;101249.72;4953522;28;20023;-78
2022/05/01 07:58:55;;;;;;;9.70;4.15;;;;;;;18.86;49.68;101254.50;4952373;29;20089;-78
2022/05/01 08:01:21;;;;;;;8.35;3.95;;;;;;;18.75;49.72;101252.03;4953422;28;20110;-78
2022/05/01 08:06:32;;;;;;;12.38;3.83;;;;;;;18.64;50.00;101246.88;4953577;29;20038;-78
2022/05/01 08:08:59;;;;;;;14.48;4.28;;;;;;;18.68;50.10;101253.72;4953582;28;20130;-78
2022/05/01 08:11:24;;;;;;;10.00;3.92;;;;;;;18.69;49.94;101252.69;4953407;28;20051;-79
2022/05/01 08:13:50;;;;;;;11.38;4.32;;;;;;;18.80;49.69;101257.88;4952589;29;20514;-78
2022/05/01 08:16:17;;;;;;;4.50;3.70;;;;;;;18.81;49.38;101251.38;4969670;28;20028;-78
2022/05/01 08:21:32;;;;;;;11.55;4.80;;;;;;;18.62;49.62;101251.66;4962597;29;20038;-78
2022/05/01 08:23:59;;;;;;;23.83;6.00;;;;;;;18.75;49.50;101252.03;4952235;29;20031;-78
2022/05/01 08:26:24;;;;;;;18.30;3.92;;;;;;;18.88;49.21;101241.56;4951903;29;20058;-79
2022/05/01 08:28:54;;;;;;;5.80;3.72;;;;;;;18.91;49.33;101243.94;4953549;29;20089;-79
2022/05/01 08:31:23;;;;;;;11.05;4.13;;;;;;;18.95;49.58;101237.16;4953500;28;20508;-80
2022/05/01 08:33:48;;;;;;;6.68;4.43;;;;;;;19.04;48.92;101247.06;4968465;28;20062;-78
2022/05/01 08:36:14;;;;;;;8.63;4.03;;;;;;;19.01;48.67;101247.41;4968263;28;20031;-78
2022/05/01 08:38:39;;;;;;;6.95;3.63;;;;;;;19.00;48.91;101242.97;4953438;28;20035;-78
2022/05/01 08:41:07;;;;;;;15.93;3.60;;;;;;;19.09;48.66;101244.69;4953215;28;20115;-78
2022/05/01 08:43:33;;;;;;;10.07;3.38;;;;;;;19.07;49.04;101232.25;4968397;28;20027;-78
2022/05/01 08:46:31;;;;;;;7.22;4.28;;;;;;;19.04;48.55;101247.06;4953378;28;20063;-78
2022/05/01 08:49:03;;;;;;;11.27;3.80;;;;;;;19.11;48.46;101253.56;4953264;28;20038;-79
2022/05/01 08:51:32;;;;;;;5.05;2.80;;;;;;;19.17;48.07;101246.63;4953040;28;20525;-78
2022/05/01 08:53:59;;;;;;;18.25;4.72;;;;;;;19.21;48.04;101254.28;4953656;28;20039;-78
2022/05/01 08:56:26;;;;;;;6.18;3.40;;;;;;;19.00;48.64;101242.97;4967921;28;20537;-78
2022/05/01 08:58:53;;;;;;;6.68;3.50;;;;;;;18.85;48.85;101240.00;4951574;29;20085;-78
2022/05/01 09:01:19;;;;;;;29.30;4.53;;;;;;;18.71;49.29;101237.03;4951705;28;20023;-78
2022/05/01 09:03:45;;;;;;;8.85;4.43;;;;;;;18.59;49.46;101241.06;4955567;28;20035;-79
2022/05/01 09:06:12;;;;;;;10.15;4.10;;;;;;;18.62;49.50;101229.84;4955108;29;20039;-79
2022/05/01 09:08:40;;;;;;;13.85;4.72;;;;;;;18.68;49.30;101235.50;4956223;28;20102;-79
2022/05/01 09:13:51;;;;;;;13.88;4.93;;;;;;;18.60;49.53;101226.41;4969551;28;20057;-80
2022/05/01 09:16:17;;;;;;;6.60;3.90;;;;;;;18.59;50.18;101231.00;4954713;29;20493;-79
2022/05/01 09:18:47;;;;;;;12.32;4.50;;;;;;;18.63;50.36;101232.41;4970789;28;20027;-79
2022/05/01 09:21:14;;;;;;;18.17;4.78;;;;;;;18.57;50.42;101227.59;4956002;28;20030;-77
2022/05/01 09:23:45;;;;;;;6.57;3.65;;;;;;;18.59;50.47;101230.16;4955996;28;20055;-78
2022/05/01 09:26:13;;;;;;;7.63;4.30;;;;;;;18.51;50.39;101235.56;4956145;28;20063;-78
2022/05/01 09:28:53;;;;;;;6.05;3.60;;;;;;;18.68;50.57;101231.91;4954763;28;20443;-78
2022/05/01 09:31:47;;;;;;;12.05;4.18;;;;;;;18.83;50.19;101238.47;4955890;28;20118;-78
2022/05/01 09:34:23;;;;;;;9.52;3.67;;;;;;;19.01;49.54;101244.69;4954734;29;20115;-78
2022/05/01 09:36:50;;;;;;;6.72;3.22;;;;;;;19.10;48.97;101238.25;4956203;28;20426;-78
2022/05/01 09:39:21;;;;;;;9.82;4.28;;;;;;;19.24;49.26;101243.03;4954990;29;20501;-81
2022/05/01 09:41:51;;;;;;;17.42;5.10;;;;;;;19.34;49.36;101232.00;4957245;28;20030;-82
2022/05/01 09:44:18;;;;;;;13.93;4.28;;;;;;;19.45;49.03;101242.63;4958087;28;20394;-85
2022/05/01 09:46:44;;;;;;;11.23;4.80;;;;;;;19.53;48.81;101235.31;4958003;28;20084;-89
2022/05/01 09:49:13;;;;;;;13.32;4.72;;;;;;;19.46;48.91;101244.34;4959052;28;20031;-87
2022/05/01 09:51:46;;;;;;;24.70;4.47;;;;;;;19.47;48.44;101249.63;4956026;29;20134;-82
2022/05/01 09:54:25;;;;;;;11.10;3.97;;;;;;;19.32;48.67;101244.97;4955896;28;20059;-81
2022/05/01 09:56:57;;;;;;;17.50;4.57;;;;;;;19.42;48.00;101252.00;4979771;28;20517;-81
2022/05/01 09:59:24;;;;;;;8.57;3.72;;;;;;;19.55;47.94;101246.91;4958583;28;20027;-83
2022/05/01 10:02:04;;;;;;;14.80;3.67;;;;;;;19.62;47.73;101235.31;4956342;29;20027;-81
2022/05/01 10:04:35;;;;;;;15.35;3.90;;;;;;;19.84;47.50;101240.13;4955664;28;20023;-80
2022/05/01 10:07:05;;;;;;;6.95;3.97;;;;;;;19.93;47.46;101259.09;4956513;29;20609;-82
2022/05/01 10:09:35;;;;;;;10.18;4.10;;;;;;;20.12;46.42;101237.91;4957697;28;20112;-81
2022/05/01 10:12:07;;;;;;;14.52;3.67;;;;;;;20.27;46.44;101242.56;4956186;28;20034;-82
2022/05/01 10:14:34;;;;;;;9.70;3.67;;;;;;;20.24;46.30;101242.88;4954102;28;20505;-80
2022/05/01 10:17:01;;;;;;;10.70;3.10;;;;;;;20.31;46.92;101243.88;4971772;28;20035;-81
2022/05/01 10:19:27;;;;;;;16.98;3.33;;;;;;;20.33;46.96;101241.00;4974126;28;20039;-79
2022/05/01 10:21:56;;;;;;;18.58;3.00;;;;;;;20.33;47.33;101235.53;4958254;29;20027;-79
2022/05/01 10:24:23;;;;;;;5.05;3.13;;;;;;;20.36;46.63;101241.50;4962493;28;20097;-80
2022/05/01 10:26:57;;;;;;;5.47;3.30;;;;;;;20.41;48.13;101244.56;4963161;28;20066;-81
2022/05/01 10:33:21;;;;;;;7.25;2.97;;;;;;;20.45;46.85;101242.34;4956134;29;20034;-81
2022/05/01 10:36:06;;;;;;;18.05;4.25;;;;;;;20.58;47.14;101246.22;4961279;28;20046;-84
2022/05/01 10:38:54;;;;;;;15.70;3.53;;;;;;;20.71;46.66;101240.22;4961972;29;20031;-85
2022/05/01 10:41:19;;;;;;;21.52;3.85;;;;;;;20.85;45.69;101242.25;4954757;29;20482;-85
2022/05/01 10:43:56;;;;;;;23.23;4.05;;;;;;;21.00;45.32;101239.59;4967594;29;20053;-84
2022/05/01 10:46:21;;;;;;;8.32;3.47;;;;;;;20.69;44.41;101236.81;4956331;28;20047;-85
2022/05/01 10:48:47;;;;;;;7.55;2.70;;;;;;;20.64;44.96;101245.53;4968862;29;20031;-85
2022/05/01 10:51:31;;;;;;;37.33;5.03;;;;;;;20.42;46.29;101235.34;4971035;28;20142;-85
2022/05/01 10:54:21;;;;;;;9.77;3.65;;;;;;;19.94;48.95;101246.25;4956831;29;20067;-84
2022/05/01 10:56:49;;;;;;;17.08;3.63;;;;;;;19.53;49.67;101248.97;4957454;28;20023;-85
2022/05/01 10:59:29;;;;;;;8.52;3.53;;;;;;;19.32;50.91;101245.81;4958000;28;20027;-84
2022/05/01 11:01:57;;;;;;;6.72;3.40;;;;;;;18.89;51.83;101237.81;4956063;29;20027;-84
2022/05/01 11:04:23;;;;;;;14.70;3.95;;;;;;;18.78;52.51;101240.81;4955542;29;20050;-84
2022/05/01 11:06:56;;;;;;;18.55;4.35;;;;;;;18.60;53.14;101237.31;4971910;28;20362;-83
2022/05/01 11:09:23;;;;;;;16.75;3.88;;;;;;;18.50;54.10;101237.41;4960251;28;20106;-85
2022/05/01 11:11:59;;;;;;;7.40;3.70;;;;;;;18.15;54.34;101249.25;4961640;28;20106;-84
2022/05/01 11:14:49;;;;;;;18.67;4.15;;;;;;;18.08;54.16;101234.56;4960038;28;20031;-84
2022/05/01 11:17:15;;;;;;;7.55;3.58;;;;;;;18.35;53.25;101234.41;4958519;29;20054;-84
2022/05/01 11:19:51;;;;;;;11.95;4.05;;;;;;;18.39;52.70;101243.97;4959695;28;20027;-85
2022/05/01 11:22:28;;;;;;;10.98;4.13;;;;;;;18.38;52.29;101228.63;4959741;28;20107;-85
2022/05/01 11:24:55;;;;;;;8.27;3.42;;;;;;;18.39;52.14;101243.13;4959749;29;20038;-84
2022/05/01 11:27:21;;;;;;;12.52;3.20;;;;;;;18.37;52.23;101246.00;4956402;28;20035;-86
2022/05/01 11:30:06;;;;;;;16.17;3.85;;;;;;;18.47;52.32;101245.88;4958797;29;20041;-86
2022/05/01 11:32:47;;;;;;;14.50;4.00;;;;;;;18.69;51.79;101239.06;4962471;29;20033;-84
2022/05/01 11:35:14;;;;;;;14.30;4.38;;;;;;;18.87;50.95;101235.22;4974270;28;20042;-85
2022/05/01 11:38:06;;;;;;;13.80;4.07;;;;;;;18.96;50.72;101233.41;4958783;29;20133;-84
2022/05/01 11:40:32;;;;;;;11.32;4.10;;;;;;;19.11;50.49;101226.28;4955622;28;20097;-85
2022/05/01 11:43:20;;;;;;;7.07;3.97;;;;;;;19.13;48.96;101228.88;4955272;28;20031;-83
2022/05/01 11:45:47;;;;;;;14.55;3.40;;;;;;;19.30;48.38;101226.00;4955160;28;20054;-82
2022/05/01 11:48:17;;;;;;;9.57;3.22;;;;;;;19.18;48.43;101210.13;4955148;28;20110;-82
2022/05/01 11:50:45;;;;;;;8.40;3.95;;;;;;;19.38;47.52;101206.97;4954899;28;20128;-83